Terminal Aerodrome Forecast
Issued by NWS

Home | Current Version | Previous Version | Text Only | Print | Product List | Glossary On
Versions: 1 2 3 4 5 6 7 8 9 10 11 12 13 14 15 16 17 18 19 20 21 22 23 24 25
000
FTUS43 KJKL 240540
TAFSJS
TAF
KSJS 240540Z 2406/2506 VRB03KT P6SM BKN120
     FM241400 21007KT P6SM VCSH SCT100
     FM242000 22010G18KT 4SM -SHRA VCTS SCT050CB BKN090
     FM250000 24008KT 5SM -SHRA VCTS SCT025 OVC040CB
     FM250500 24005KT P6SM BKN070
     AMD NOT SKED=

USA.gov is the U.S. government's official web portal to all federal, state and local government web resources and services.